sensor_id;sensor_type;location;lat;lon;timestamp;temperature;humidity
40622;DHT22;26324;52.040;11.528;2022-11-12T00:00:29;4.70;81.60
40622;DHT22;26324;52.040;11.528;2022-11-12T00:02:55;4.80;81.50
40622;DHT22;26324;52.040;11.528;2022-11-12T00:05:20;4.70;81.50
40622;DHT22;26324;52.040;11.528;2022-11-12T00:07:46;4.60;82.10
40622;DHT22;26324;52.040;11.528;2022-11-12T00:10:12;4.60;82.00
40622;DHT22;26324;52.040;11.528;2022-11-12T00:12:37;4.60;82.40
40622;DHT22;26324;52.040;11.528;2022-11-12T00:15:03;4.50;82.90
40622;DHT22;26324;52.040;11.528;2022-11-12T00:17:29;4.60;82.90
40622;DHT22;26324;52.040;11.528;2022-11-12T00:19:54;4.70;81.90
40622;DHT22;26324;52.040;11.528;2022-11-12T00:22:20;4.60;80.20
40622;DHT22;26324;52.040;11.528;2022-11-12T00:24:46;4.50;80.30
40622;DHT22;26324;52.040;11.528;2022-11-12T00:27:11;4.50;80.20
40622;DHT22;26324;52.040;11.528;2022-11-12T00:29:37;4.60;80.40
40622;DHT22;26324;52.040;11.528;2022-11-12T00:32:04;4.40;80.30
40622;DHT22;26324;52.040;11.528;2022-11-12T00:34:30;4.30;80.90
40622;DHT22;26324;52.040;11.528;2022-11-12T00:36:55;4.10;81.50
40622;DHT22;26324;52.040;11.528;2022-11-12T00:39:21;4.10;82.00
40622;DHT22;26324;52.040;11.528;2022-11-12T00:41:46;4.10;81.30
40622;DHT22;26324;52.040;11.528;2022-11-12T00:44:12;4.00;80.90
40622;DHT22;26324;52.040;11.528;2022-11-12T00:46:37;4.00;81.20
40622;DHT22;26324;52.040;11.528;2022-11-12T00:49:03;3.90;81.50
40622;DHT22;26324;52.040;11.528;2022-11-12T00:51:28;3.80;81.90
40622;DHT22;26324;52.040;11.528;2022-11-12T00:53:54;3.80;82.10
40622;DHT22;26324;52.040;11.528;2022-11-12T00:56:20;3.80;82.60
40622;DHT22;26324;52.040;11.528;2022-11-12T00:58:45;3.80;82.70
40622;DHT22;26324;52.040;11.528;2022-11-12T01:01:13;3.80;82.50
40622;DHT22;26324;52.040;11.528;2022-11-12T01:03:41;3.80;83.00
40622;DHT22;26324;52.040;11.528;2022-11-12T01:06:16;3.80;84.30
40622;DHT22;26324;52.040;11.528;2022-11-12T01:08:42;3.80;85.00
40622;DHT22;26324;52.040;11.528;2022-11-12T01:11:11;3.90;85.10
40622;DHT22;26324;52.040;11.528;2022-11-12T01:13:39;4.10;84.70
40622;DHT22;26324;52.040;11.528;2022-11-12T01:16:11;4.10;84.20
40622;DHT22;26324;52.040;11.528;2022-11-12T01:18:37;4.10;84.10
40622;DHT22;26324;52.040;11.528;2022-11-12T01:21:05;4.20;83.40
40622;DHT22;26324;52.040;11.528;2022-11-12T01:23:31;4.10;83.20
40622;DHT22;26324;52.040;11.528;2022-11-12T01:25:57;4.20;82.80
40622;DHT22;26324;52.040;11.528;2022-11-12T01:28:23;4.30;82.20
40622;DHT22;26324;52.040;11.528;2022-11-12T01:30:49;4.30;81.70
40622;DHT22;26324;52.040;11.528;2022-11-12T01:33:14;4.20;81.40
40622;DHT22;26324;52.040;11.528;2022-11-12T01:35:40;4.10;81.40
40622;DHT22;26324;52.040;11.528;2022-11-12T01:38:05;4.00;81.50
40622;DHT22;26324;52.040;11.528;2022-11-12T01:40:32;3.90;81.70
40622;DHT22;26324;52.040;11.528;2022-11-12T01:42:57;3.90;81.60
40622;DHT22;26324;52.040;11.528;2022-11-12T01:45:23;3.80;82.20
40622;DHT22;26324;52.040;11.528;2022-11-12T01:47:50;3.70;82.60
40622;DHT22;26324;52.040;11.528;2022-11-12T01:50:30;3.80;82.80
40622;DHT22;26324;52.040;11.528;2022-11-12T01:53:03;3.80;82.60
40622;DHT22;26324;52.040;11.528;2022-11-12T01:55:34;3.60;82.80
40622;DHT22;26324;52.040;11.528;2022-11-12T01:58:12;3.70;83.10
40622;DHT22;26324;52.040;11.528;2022-11-12T02:00:39;3.80;83.20
40622;DHT22;26324;52.040;11.528;2022-11-12T02:03:09;3.90;83.20
40622;DHT22;26324;52.040;11.528;2022-11-12T02:05:37;4.00;82.70
40622;DHT22;26324;52.040;11.528;2022-11-12T02:08:05;4.00;81.20
40622;DHT22;26324;52.040;11.528;2022-11-12T02:10:33;3.80;81.30
40622;DHT22;26324;52.040;11.528;2022-11-12T02:12:58;3.60;81.80
40622;DHT22;26324;52.040;11.528;2022-11-12T02:15:43;3.60;82.00
40622;DHT22;26324;52.040;11.528;2022-11-12T02:18:08;3.60;82.40
40622;DHT22;26324;52.040;11.528;2022-11-12T02:20:37;3.50;82.80
40622;DHT22;26324;52.040;11.528;2022-11-12T02:23:04;3.60;83.10
40622;DHT22;26324;52.040;11.528;2022-11-12T02:25:30;3.60;82.70
40622;DHT22;26324;52.040;11.528;2022-11-12T02:27:57;3.70;82.10
40622;DHT22;26324;52.040;11.528;2022-11-12T02:30:32;3.60;81.90
40622;DHT22;26324;52.040;11.528;2022-11-12T02:32:58;3.50;82.20
40622;DHT22;26324;52.040;11.528;2022-11-12T02:35:24;3.40;82.40
40622;DHT22;26324;52.040;11.528;2022-11-12T02:37:49;3.30;82.70
40622;DHT22;26324;52.040;11.528;2022-11-12T02:40:15;3.30;82.80
40622;DHT22;26324;52.040;11.528;2022-11-12T02:42:41;3.30;83.10
40622;DHT22;26324;52.040;11.528;2022-11-12T02:45:06;3.30;83.20
40622;DHT22;26324;52.040;11.528;2022-11-12T02:47:32;3.40;83.10
40622;DHT22;26324;52.040;11.528;2022-11-12T02:49:58;3.40;83.00
40622;DHT22;26324;52.040;11.528;2022-11-12T02:52:23;3.40;83.20
40622;DHT22;26324;52.040;11.528;2022-11-12T02:54:48;3.40;83.10
40622;DHT22;26324;52.040;11.528;2022-11-12T02:57:14;3.50;82.90
40622;DHT22;26324;52.040;11.528;2022-11-12T02:59:40;3.50;82.50
40622;DHT22;26324;52.040;11.528;2022-11-12T03:02:05;3.50;82.60
40622;DHT22;26324;52.040;11.528;2022-11-12T03:04:31;3.40;82.80
40622;DHT22;26324;52.040;11.528;2022-11-12T03:06:56;3.50;82.70
40622;DHT22;26324;52.040;11.528;2022-11-12T03:09:22;3.40;82.80
40622;DHT22;26324;52.040;11.528;2022-11-12T03:11:48;3.30;83.20
40622;DHT22;26324;52.040;11.528;2022-11-12T03:14:13;3.40;83.60
40622;DHT22;26324;52.040;11.528;2022-11-12T03:16:39;3.40;83.50
40622;DHT22;26324;52.040;11.528;2022-11-12T03:19:04;3.30;83.50
40622;DHT22;26324;52.040;11.528;2022-11-12T03:21:30;3.30;83.90
40622;DHT22;26324;52.040;11.528;2022-11-12T03:23:55;3.30;83.80
40622;DHT22;26324;52.040;11.528;2022-11-12T03:26:21;3.20;83.60
40622;DHT22;26324;52.040;11.528;2022-11-12T03:28:46;3.20;83.90
40622;DHT22;26324;52.040;11.528;2022-11-12T03:31:12;3.20;83.80
40622;DHT22;26324;52.040;11.528;2022-11-12T03:33:38;3.10;83.90
40622;DHT22;26324;52.040;11.528;2022-11-12T03:36:04;3.10;84.10
40622;DHT22;26324;52.040;11.528;2022-11-12T03:38:29;3.10;84.20
40622;DHT22;26324;52.040;11.528;2022-11-12T03:40:55;3.20;84.30
40622;DHT22;26324;52.040;11.528;2022-11-12T03:43:20;3.20;84.60
40622;DHT22;26324;52.040;11.528;2022-11-12T03:45:46;3.20;85.80
40622;DHT22;26324;52.040;11.528;2022-11-12T03:48:12;3.30;85.80
40622;DHT22;26324;52.040;11.528;2022-11-12T03:50:37;3.50;85.90
40622;DHT22;26324;52.040;11.528;2022-11-12T03:53:03;3.60;85.20
40622;DHT22;26324;52.040;11.528;2022-11-12T03:55:29;3.60;84.80
40622;DHT22;26324;52.040;11.528;2022-11-12T03:57:55;3.50;84.70
40622;DHT22;26324;52.040;11.528;2022-11-12T04:00:22;3.50;84.80
40622;DHT22;26324;52.040;11.528;2022-11-12T04:02:49;3.50;84.50
40622;DHT22;26324;52.040;11.528;2022-11-12T04:05:15;3.50;84.40
40622;DHT22;26324;52.040;11.528;2022-11-12T04:08:01;3.30;84.40
40622;DHT22;26324;52.040;11.528;2022-11-12T04:10:45;3.30;84.30
40622;DHT22;26324;52.040;11.528;2022-11-12T04:13:11;3.20;84.40
40622;DHT22;26324;52.040;11.528;2022-11-12T04:15:55;3.20;84.60
40622;DHT22;26324;52.040;11.528;2022-11-12T04:18:40;3.30;84.10
40622;DHT22;26324;52.040;11.528;2022-11-12T04:21:36;3.20;84.20
40622;DHT22;26324;52.040;11.528;2022-11-12T04:24:38;3.10;84.20
40622;DHT22;26324;52.040;11.528;2022-11-12T04:27:30;3.10;84.00
40622;DHT22;26324;52.040;11.528;2022-11-12T04:29:57;3.10;84.20
40622;DHT22;26324;52.040;11.528;2022-11-12T04:32:50;3.10;84.10
40622;DHT22;26324;52.040;11.528;2022-11-12T04:35:19;3.10;83.90
40622;DHT22;26324;52.040;11.528;2022-11-12T04:37:45;3.20;83.50
40622;DHT22;26324;52.040;11.528;2022-11-12T04:40:12;3.00;83.40
40622;DHT22;26324;52.040;11.528;2022-11-12T04:42:57;3.00;83.10
40622;DHT22;26324;52.040;11.528;2022-11-12T04:45:42;2.90;83.30
40622;DHT22;26324;52.040;11.528;2022-11-12T04:48:08;2.80;83.50
40622;DHT22;26324;52.040;11.528;2022-11-12T04:50:34;2.70;83.70
40622;DHT22;26324;52.040;11.528;2022-11-12T04:52:59;2.60;84.10
40622;DHT22;26324;52.040;11.528;2022-11-12T04:55:25;2.50;84.60
40622;DHT22;26324;52.040;11.528;2022-11-12T04:57:50;2.50;84.70
40622;DHT22;26324;52.040;11.528;2022-11-12T05:00:16;2.50;84.90
40622;DHT22;26324;52.040;11.528;2022-11-12T05:02:42;2.50;85.20
40622;DHT22;26324;52.040;11.528;2022-11-12T05:05:08;2.50;84.90
40622;DHT22;26324;52.040;11.528;2022-11-12T05:07:33;2.50;85.10
40622;DHT22;26324;52.040;11.528;2022-11-12T05:09:59;2.40;85.10
40622;DHT22;26324;52.040;11.528;2022-11-12T05:12:24;2.40;85.20
40622;DHT22;26324;52.040;11.528;2022-11-12T05:14:50;2.40;85.20
40622;DHT22;26324;52.040;11.528;2022-11-12T05:17:15;2.50;85.00
40622;DHT22;26324;52.040;11.528;2022-11-12T05:19:41;2.40;85.20
40622;DHT22;26324;52.040;11.528;2022-11-12T05:22:09;2.40;85.20
40622;DHT22;26324;52.040;11.528;2022-11-12T05:24:43;2.50;85.20
40622;DHT22;26324;52.040;11.528;2022-11-12T05:27:11;2.40;85.00
40622;DHT22;26324;52.040;11.528;2022-11-12T05:29:38;2.40;84.90
40622;DHT22;26324;52.040;11.528;2022-11-12T05:32:05;2.30;84.80
40622;DHT22;26324;52.040;11.528;2022-11-12T05:34:31;2.30;84.80
40622;DHT22;26324;52.040;11.528;2022-11-12T05:36:56;2.30;85.00
40622;DHT22;26324;52.040;11.528;2022-11-12T05:39:22;2.30;85.00
40622;DHT22;26324;52.040;11.528;2022-11-12T05:41:48;2.20;85.00
40622;DHT22;26324;52.040;11.528;2022-11-12T05:44:13;2.20;85.30
40622;DHT22;26324;52.040;11.528;2022-11-12T05:46:39;2.30;85.40
40622;DHT22;26324;52.040;11.528;2022-11-12T05:49:05;2.40;85.20
40622;DHT22;26324;52.040;11.528;2022-11-12T05:51:30;2.40;85.00
40622;DHT22;26324;52.040;11.528;2022-11-12T05:53:56;2.30;85.20
40622;DHT22;26324;52.040;11.528;2022-11-12T05:56:21;2.30;85.40
40622;DHT22;26324;52.040;11.528;2022-11-12T05:58:47;2.30;85.40
40622;DHT22;26324;52.040;11.528;2022-11-12T06:01:12;2.30;85.50
40622;DHT22;26324;52.040;11.528;2022-11-12T06:03:38;2.30;85.30
40622;DHT22;26324;52.040;11.528;2022-11-12T06:06:03;2.20;85.20
40622;DHT22;26324;52.040;11.528;2022-11-12T06:08:29;2.20;85.40
40622;DHT22;26324;52.040;11.528;2022-11-12T06:10:55;2.20;85.30
40622;DHT22;26324;52.040;11.528;2022-11-12T06:13:22;2.30;85.30
40622;DHT22;26324;52.040;11.528;2022-11-12T06:15:48;2.10;85.20
40622;DHT22;26324;52.040;11.528;2022-11-12T06:18:14;2.10;85.70
40622;DHT22;26324;52.040;11.528;2022-11-12T06:20:39;2.00;86.00
40622;DHT22;26324;52.040;11.528;2022-11-12T06:23:05;2.10;85.90
40622;DHT22;26324;52.040;11.528;2022-11-12T06:25:31;2.10;85.70
40622;DHT22;26324;52.040;11.528;2022-11-12T06:27:56;2.10;85.70
40622;DHT22;26324;52.040;11.528;2022-11-12T06:30:22;2.10;85.50
40622;DHT22;26324;52.040;11.528;2022-11-12T06:32:48;2.20;85.20
40622;DHT22;26324;52.040;11.528;2022-11-12T06:35:14;2.20;84.80
40622;DHT22;26324;52.040;11.528;2022-11-12T06:37:40;2.10;84.80
40622;DHT22;26324;52.040;11.528;2022-11-12T06:40:06;2.20;84.80
40622;DHT22;26324;52.040;11.528;2022-11-12T06:42:33;2.10;84.90
40622;DHT22;26324;52.040;11.528;2022-11-12T06:45:02;2.10;85.00
40622;DHT22;26324;52.040;11.528;2022-11-12T06:47:27;2.10;85.20
40622;DHT22;26324;52.040;11.528;2022-11-12T06:49:53;2.10;85.20
40622;DHT22;26324;52.040;11.528;2022-11-12T06:52:18;2.10;85.40
40622;DHT22;26324;52.040;11.528;2022-11-12T06:54:44;2.30;85.40
40622;DHT22;26324;52.040;11.528;2022-11-12T06:57:10;2.40;85.50
40622;DHT22;26324;52.040;11.528;2022-11-12T06:59:35;2.60;85.00
40622;DHT22;26324;52.040;11.528;2022-11-12T07:02:01;2.50;85.10
40622;DHT22;26324;52.040;11.528;2022-11-12T07:04:27;2.50;85.50
40622;DHT22;26324;52.040;11.528;2022-11-12T07:06:52;2.50;85.30
40622;DHT22;26324;52.040;11.528;2022-11-12T07:09:18;2.60;85.40
40622;DHT22;26324;52.040;11.528;2022-11-12T07:11:43;2.70;85.30
40622;DHT22;26324;52.040;11.528;2022-11-12T07:14:09;2.80;85.10
40622;DHT22;26324;52.040;11.528;2022-11-12T07:16:34;2.90;85.10
40622;DHT22;26324;52.040;11.528;2022-11-12T07:19:00;3.00;84.80
40622;DHT22;26324;52.040;11.528;2022-11-12T07:21:26;3.20;84.50
40622;DHT22;26324;52.040;11.528;2022-11-12T07:23:51;3.30;84.40
40622;DHT22;26324;52.040;11.528;2022-11-12T07:26:22;3.40;84.40
40622;DHT22;26324;52.040;11.528;2022-11-12T07:28:49;3.50;84.30
40622;DHT22;26324;52.040;11.528;2022-11-12T07:31:17;3.70;84.10
40622;DHT22;26324;52.040;11.528;2022-11-12T07:33:43;3.90;83.40
40622;DHT22;26324;52.040;11.528;2022-11-12T07:36:11;4.10;82.20
40622;DHT22;26324;52.040;11.528;2022-11-12T07:38:39;4.30;81.60
40622;DHT22;26324;52.040;11.528;2022-11-12T07:41:13;4.30;81.50
40622;DHT22;26324;52.040;11.528;2022-11-12T07:43:40;4.40;82.10
40622;DHT22;26324;52.040;11.528;2022-11-12T07:46:12;4.40;82.30
40622;DHT22;26324;52.040;11.528;2022-11-12T07:48:39;4.60;82.20
40622;DHT22;26324;52.040;11.528;2022-11-12T07:51:05;4.70;81.40
40622;DHT22;26324;52.040;11.528;2022-11-12T07:53:32;4.80;80.90
40622;DHT22;26324;52.040;11.528;2022-11-12T07:55:59;5.00;81.10
40622;DHT22;26324;52.040;11.528;2022-11-12T07:58:27;5.10;81.00
40622;DHT22;26324;52.040;11.528;2022-11-12T08:00:54;5.10;80.80
40622;DHT22;26324;52.040;11.528;2022-11-12T08:03:19;5.30;80.90
40622;DHT22;26324;52.040;11.528;2022-11-12T08:05:45;5.50;80.70
40622;DHT22;26324;52.040;11.528;2022-11-12T08:08:11;5.50;80.40
40622;DHT22;26324;52.040;11.528;2022-11-12T08:10:37;5.60;80.30
40622;DHT22;26324;52.040;11.528;2022-11-12T08:13:02;5.80;80.00
40622;DHT22;26324;52.040;11.528;2022-11-12T08:15:28;5.90;79.80
40622;DHT22;26324;52.040;11.528;2022-11-12T08:17:54;6.00;79.80
40622;DHT22;26324;52.040;11.528;2022-11-12T08:20:20;6.20;79.10
40622;DHT22;26324;52.040;11.528;2022-11-12T08:22:45;6.30;79.00
40622;DHT22;26324;52.040;11.528;2022-11-12T08:25:11;6.30;79.20
40622;DHT22;26324;52.040;11.528;2022-11-12T08:27:36;6.50;79.40
40622;DHT22;26324;52.040;11.528;2022-11-12T08:30:03;6.60;79.20
40622;DHT22;26324;52.040;11.528;2022-11-12T08:32:29;6.70;78.60
40622;DHT22;26324;52.040;11.528;2022-11-12T08:34:54;6.90;78.70
40622;DHT22;26324;52.040;11.528;2022-11-12T08:37:20;7.10;78.90
40622;DHT22;26324;52.040;11.528;2022-11-12T08:39:45;7.20;79.10
40622;DHT22;26324;52.040;11.528;2022-11-12T08:42:11;7.50;79.30
40622;DHT22;26324;52.040;11.528;2022-11-12T08:44:36;7.70;78.50
40622;DHT22;26324;52.040;11.528;2022-11-12T08:47:02;8.10;76.70
40622;DHT22;26324;52.040;11.528;2022-11-12T08:49:28;8.50;75.00
40622;DHT22;26324;52.040;11.528;2022-11-12T08:51:54;8.80;74.20
40622;DHT22;26324;52.040;11.528;2022-11-12T08:54:20;9.10;73.10
40622;DHT22;26324;52.040;11.528;2022-11-12T08:56:45;9.30;72.60
40622;DHT22;26324;52.040;11.528;2022-11-12T08:59:11;9.50;72.20
40622;DHT22;26324;52.040;11.528;2022-11-12T09:01:36;9.70;72.00
40622;DHT22;26324;52.040;11.528;2022-11-12T09:04:02;10.00;70.60
40622;DHT22;26324;52.040;11.528;2022-11-12T09:06:27;10.30;68.60
40622;DHT22;26324;52.040;11.528;2022-11-12T09:08:53;10.50;67.90
40622;DHT22;26324;52.040;11.528;2022-11-12T09:11:19;10.60;67.60
40622;DHT22;26324;52.040;11.528;2022-11-12T09:13:44;10.80;67.80
40622;DHT22;26324;52.040;11.528;2022-11-12T09:16:10;11.10;68.00
40622;DHT22;26324;52.040;11.528;2022-11-12T09:18:36;11.40;66.30
40622;DHT22;26324;52.040;11.528;2022-11-12T09:21:07;11.60;66.00
40622;DHT22;26324;52.040;11.528;2022-11-12T09:23:34;11.90;65.60
40622;DHT22;26324;52.040;11.528;2022-11-12T09:26:00;12.10;65.50
40622;DHT22;26324;52.040;11.528;2022-11-12T09:28:26;12.30;64.50
40622;DHT22;26324;52.040;11.528;2022-11-12T09:30:53;12.20;64.50
40622;DHT22;26324;52.040;11.528;2022-11-12T09:33:25;12.20;64.70
40622;DHT22;26324;52.040;11.528;2022-11-12T09:35:51;12.10;65.80
40622;DHT22;26324;52.040;11.528;2022-11-12T09:38:17;12.00;65.70
40622;DHT22;26324;52.040;11.528;2022-11-12T09:43:30;11.50;67.40
40622;DHT22;26324;52.040;11.528;2022-11-12T09:46:03;11.50;68.30
40622;DHT22;26324;52.040;11.528;2022-11-12T09:48:38;11.10;69.30
40622;DHT22;26324;52.040;11.528;2022-11-12T09:51:11;10.90;70.50
40622;DHT22;26324;52.040;11.528;2022-11-12T09:53:49;10.60;71.40
40622;DHT22;26324;52.040;11.528;2022-11-12T09:56:18;10.30;72.30
40622;DHT22;26324;52.040;11.528;2022-11-12T09:58:44;10.20;72.70
40622;DHT22;26324;52.040;11.528;2022-11-12T10:01:22;10.30;73.10
40622;DHT22;26324;52.040;11.528;2022-11-12T10:06:28;10.70;72.40
40622;DHT22;26324;52.040;11.528;2022-11-12T10:09:07;10.90;71.30
40622;DHT22;26324;52.040;11.528;2022-11-12T10:11:42;11.10;71.10
40622;DHT22;26324;52.040;11.528;2022-11-12T10:18:04;11.20;70.30
40622;DHT22;26324;52.040;11.528;2022-11-12T10:20:55;11.30;70.20
40622;DHT22;26324;52.040;11.528;2022-11-12T10:23:40;11.30;70.00
40622;DHT22;26324;52.040;11.528;2022-11-12T10:26:20;11.10;69.50
40622;DHT22;26324;52.040;11.528;2022-11-12T10:28:57;11.20;69.80
40622;DHT22;26324;52.040;11.528;2022-11-12T10:31:24;11.30;69.10
40622;DHT22;26324;52.040;11.528;2022-11-12T10:33:50;11.40;69.50
40622;DHT22;26324;52.040;11.528;2022-11-12T10:36:28;11.40;69.30
40622;DHT22;26324;52.040;11.528;2022-11-12T10:38:55;11.50;69.00
40622;DHT22;26324;52.040;11.528;2022-11-12T10:41:31;11.50;69.30
40622;DHT22;26324;52.040;11.528;2022-11-12T10:43:59;11.60;69.70
40622;DHT22;26324;52.040;11.528;2022-11-12T10:46:28;11.60;70.00
40622;DHT22;26324;52.040;11.528;2022-11-12T10:49:03;11.50;70.60
40622;DHT22;26324;52.040;11.528;2022-11-12T10:51:34;11.60;70.60
40622;DHT22;26324;52.040;11.528;2022-11-12T10:54:27;11.60;69.30
40622;DHT22;26324;52.040;11.528;2022-11-12T10:56:53;11.60;69.80
40622;DHT22;26324;52.040;11.528;2022-11-12T10:59:23;11.70;70.00
40622;DHT22;26324;52.040;11.528;2022-11-12T11:01:56;11.90;70.30
40622;DHT22;26324;52.040;11.528;2022-11-12T11:04:33;11.90;70.30
40622;DHT22;26324;52.040;11.528;2022-11-12T11:09:27;12.00;70.20
40622;DHT22;26324;52.040;11.528;2022-11-12T11:11:52;12.00;69.90
40622;DHT22;26324;52.040;11.528;2022-11-12T11:16:59;11.80;70.40
40622;DHT22;26324;52.040;11.528;2022-11-12T11:19:36;12.00;70.60
40622;DHT22;26324;52.040;11.528;2022-11-12T11:22:13;12.10;69.70
40622;DHT22;26324;52.040;11.528;2022-11-12T11:25:05;11.80;70.40
40622;DHT22;26324;52.040;11.528;2022-11-12T11:27:41;12.10;70.90
40622;DHT22;26324;52.040;11.528;2022-11-12T11:30:15;12.30;70.20
40622;DHT22;26324;52.040;11.528;2022-11-12T11:33:02;12.60;69.70
40622;DHT22;26324;52.040;11.528;2022-11-12T11:35:58;12.80;69.20
40622;DHT22;26324;52.040;11.528;2022-11-12T11:38:48;13.00;68.60
40622;DHT22;26324;52.040;11.528;2022-11-12T11:43:59;13.60;68.20
40622;DHT22;26324;52.040;11.528;2022-11-12T11:46:39;13.70;66.90
40622;DHT22;26324;52.040;11.528;2022-11-12T11:54:30;13.80;65.50
40622;DHT22;26324;52.040;11.528;2022-11-12T11:57:02;14.00;64.70
40622;DHT22;26324;52.040;11.528;2022-11-12T12:09:06;14.50;64.70
40622;DHT22;26324;52.040;11.528;2022-11-12T12:14:45;14.20;65.30
40622;DHT22;26324;52.040;11.528;2022-11-12T12:22:50;14.70;64.20
40622;DHT22;26324;52.040;11.528;2022-11-12T12:25:22;14.90;64.40
40622;DHT22;26324;52.040;11.528;2022-11-12T12:28:11;15.10;63.80
40622;DHT22;26324;52.040;11.528;2022-11-12T12:30:46;15.30;63.30
40622;DHT22;26324;52.040;11.528;2022-11-12T12:33:28;15.70;62.30
40622;DHT22;26324;52.040;11.528;2022-11-12T12:36:40;16.10;60.60
40622;DHT22;26324;52.040;11.528;2022-11-12T12:39:16;16.90;58.40
40622;DHT22;26324;52.040;11.528;2022-11-12T12:44:09;18.90;53.40
40622;DHT22;26324;52.040;11.528;2022-11-12T12:46:52;20.10;49.60
40622;DHT22;26324;52.040;11.528;2022-11-12T12:49:27;20.80;48.20
40622;DHT22;26324;52.040;11.528;2022-11-12T12:51:54;22.30;45.10
40622;DHT22;26324;52.040;11.528;2022-11-12T12:57:04;24.10;39.30
40622;DHT22;26324;52.040;11.528;2022-11-12T12:59:30;25.10;37.50
40622;DHT22;26324;52.040;11.528;2022-11-12T13:02:00;26.10;35.00
40622;DHT22;26324;52.040;11.528;2022-11-12T13:04:53;26.80;33.60
40622;DHT22;26324;52.040;11.528;2022-11-12T13:07:46;26.90;32.70
40622;DHT22;26324;52.040;11.528;2022-11-12T13:13:24;25.30;34.90
40622;DHT22;26324;52.040;11.528;2022-11-12T13:15:52;25.60;33.90
40622;DHT22;26324;52.040;11.528;2022-11-12T13:23:49;26.00;33.80
40622;DHT22;26324;52.040;11.528;2022-11-12T13:35:27;26.00;33.50
40622;DHT22;26324;52.040;11.528;2022-11-12T13:46:14;27.60;30.40
40622;DHT22;26324;52.040;11.528;2022-11-12T13:53:51;28.70;28.30
40622;DHT22;26324;52.040;11.528;2022-11-12T13:56:28;26.90;29.80
40622;DHT22;26324;52.040;11.528;2022-11-12T13:59:06;25.50;32.60
40622;DHT22;26324;52.040;11.528;2022-11-12T14:01:32;24.70;33.80
40622;DHT22;26324;52.040;11.528;2022-11-12T14:03:59;24.40;34.50
40622;DHT22;26324;52.040;11.528;2022-11-12T14:06:33;24.50;34.20
40622;DHT22;26324;52.040;11.528;2022-11-12T14:09:11;24.00;34.30
40622;DHT22;26324;52.040;11.528;2022-11-12T14:11:59;22.30;36.50
40622;DHT22;26324;52.040;11.528;2022-11-12T14:17:29;21.90;38.10
40622;DHT22;26324;52.040;11.528;2022-11-12T14:22:44;21.30;39.20
40622;DHT22;26324;52.040;11.528;2022-11-12T14:25:19;21.10;39.70
40622;DHT22;26324;52.040;11.528;2022-11-12T14:27:46;20.60;40.20
40622;DHT22;26324;52.040;11.528;2022-11-12T14:30:19;20.10;41.60
40622;DHT22;26324;52.040;11.528;2022-11-12T14:32:52;19.50;42.50
40622;DHT22;26324;52.040;11.528;2022-11-12T14:37:48;18.00;45.00
40622;DHT22;26324;52.040;11.528;2022-11-12T14:40:16;17.30;47.70
40622;DHT22;26324;52.040;11.528;2022-11-12T14:42:42;16.70;49.70
40622;DHT22;26324;52.040;11.528;2022-11-12T14:45:15;16.00;51.30
40622;DHT22;26324;52.040;11.528;2022-11-12T14:47:42;15.40;53.80
40622;DHT22;26324;52.040;11.528;2022-11-12T14:50:17;14.80;55.40
40622;DHT22;26324;52.040;11.528;2022-11-12T14:52:47;14.40;56.50
40622;DHT22;26324;52.040;11.528;2022-11-12T14:55:18;13.50;59.50
40622;DHT22;26324;52.040;11.528;2022-11-12T14:57:45;12.80;62.00
40622;DHT22;26324;52.040;11.528;2022-11-12T15:00:20;12.60;63.60
40622;DHT22;26324;52.040;11.528;2022-11-12T15:02:46;12.50;63.80
40622;DHT22;26324;52.040;11.528;2022-11-12T15:05:16;12.30;63.40
40622;DHT22;26324;52.040;11.528;2022-11-12T15:08:05;12.00;65.60
40622;DHT22;26324;52.040;11.528;2022-11-12T15:13:13;11.70;66.70
40622;DHT22;26324;52.040;11.528;2022-11-12T15:18:22;11.40;68.10
40622;DHT22;26324;52.040;11.528;2022-11-12T15:21:19;11.10;68.50
40622;DHT22;26324;52.040;11.528;2022-11-12T15:23:48;10.90;69.60
40622;DHT22;26324;52.040;11.528;2022-11-12T15:26:40;10.60;70.20
40622;DHT22;26324;52.040;11.528;2022-11-12T15:31:46;10.40;71.90
40622;DHT22;26324;52.040;11.528;2022-11-12T15:34:32;10.10;72.10
40622;DHT22;26324;52.040;11.528;2022-11-12T15:37:02;10.00;72.10
40622;DHT22;26324;52.040;11.528;2022-11-12T15:39:29;9.70;72.90
40622;DHT22;26324;52.040;11.528;2022-11-12T15:42:01;9.60;72.90
40622;DHT22;26324;52.040;11.528;2022-11-12T15:44:32;9.40;73.80
40622;DHT22;26324;52.040;11.528;2022-11-12T15:46:59;9.40;74.10
40622;DHT22;26324;52.040;11.528;2022-11-12T15:49:25;9.30;73.90
40622;DHT22;26324;52.040;11.528;2022-11-12T15:51:51;9.20;74.60
40622;DHT22;26324;52.040;11.528;2022-11-12T15:54:16;9.10;75.10
40622;DHT22;26324;52.040;11.528;2022-11-12T15:56:42;9.10;75.50
40622;DHT22;26324;52.040;11.528;2022-11-12T15:59:13;8.90;75.60
40622;DHT22;26324;52.040;11.528;2022-11-12T16:01:39;8.80;76.20
40622;DHT22;26324;52.040;11.528;2022-11-12T16:04:05;8.70;76.40
40622;DHT22;26324;52.040;11.528;2022-11-12T16:06:30;8.70;76.70
40622;DHT22;26324;52.040;11.528;2022-11-12T16:08:56;8.50;76.80
40622;DHT22;26324;52.040;11.528;2022-11-12T16:11:21;8.40;76.90
40622;DHT22;26324;52.040;11.528;2022-11-12T16:14:09;8.30;77.30
40622;DHT22;26324;52.040;11.528;2022-11-12T16:16:37;8.20;77.60
40622;DHT22;26324;52.040;11.528;2022-11-12T16:19:11;8.10;77.70
40622;DHT22;26324;52.040;11.528;2022-11-12T16:21:37;8.00;78.00
40622;DHT22;26324;52.040;11.528;2022-11-12T16:24:02;8.00;77.90
40622;DHT22;26324;52.040;11.528;2022-11-12T16:26:29;7.90;78.50
40622;DHT22;26324;52.040;11.528;2022-11-12T16:28:55;7.90;78.70
40622;DHT22;26324;52.040;11.528;2022-11-12T16:31:22;7.90;78.40
40622;DHT22;26324;52.040;11.528;2022-11-12T16:33:48;7.80;79.20
40622;DHT22;26324;52.040;11.528;2022-11-12T16:36:14;7.70;79.30
40622;DHT22;26324;52.040;11.528;2022-11-12T16:38:40;7.70;79.00
40622;DHT22;26324;52.040;11.528;2022-11-12T16:41:09;7.70;78.90
40622;DHT22;26324;52.040;11.528;2022-11-12T16:43:34;7.60;79.60
40622;DHT22;26324;52.040;11.528;2022-11-12T16:46:00;7.70;79.40
40622;DHT22;26324;52.040;11.528;2022-11-12T16:48:26;7.70;78.70
40622;DHT22;26324;52.040;11.528;2022-11-12T16:50:51;7.60;78.50
40622;DHT22;26324;52.040;11.528;2022-11-12T16:53:17;7.50;79.00
40622;DHT22;26324;52.040;11.528;2022-11-12T16:55:43;7.40;79.50
40622;DHT22;26324;52.040;11.528;2022-11-12T16:58:12;7.40;80.00
40622;DHT22;26324;52.040;11.528;2022-11-12T17:00:40;7.50;80.30
40622;DHT22;26324;52.040;11.528;2022-11-12T17:03:06;7.50;80.20
40622;DHT22;26324;52.040;11.528;2022-11-12T17:05:32;7.40;80.30
40622;DHT22;26324;52.040;11.528;2022-11-12T17:07:58;7.20;80.50
40622;DHT22;26324;52.040;11.528;2022-11-12T17:10:24;7.10;80.50